createdAt,value
2017-07-07T00:00:04.903Z,21.25
2017-07-07T00:01:05.222Z,21.26
2017-07-07T00:02:05.292Z,21.43
2017-07-07T00:03:04.862Z,21.44
2017-07-07T00:04:04.883Z,21.58
2017-07-07T00:05:04.832Z,21.65
2017-07-07T00:06:05.154Z,21.81
2017-07-07T00:07:05.234Z,21.81
2017-07-07T00:08:05.112Z,21.93
2017-07-07T00:09:05.095Z,21.88
2017-07-07T00:10:04.784Z,21.84
2017-07-07T00:11:05.066Z,21.84
2017-07-07T00:12:05.051Z,21.96
2017-07-07T00:13:05.052Z,21.99
2017-07-07T00:14:05.073Z,22
2017-07-07T00:15:05.038Z,21.96
2017-07-07T00:16:05.015Z,21.99
2017-07-07T00:17:04.992Z,21.92
2017-07-07T00:18:04.971Z,21.96
2017-07-07T00:19:04.665Z,21.96
2017-07-07T00:20:04.963Z,21.96
2017-07-07T00:21:04.933Z,22.06
2017-07-07T00:22:04.299Z,22
2017-07-07T00:23:04.902Z,21.99
2017-07-07T00:24:04.581Z,21.9
2017-07-07T00:25:04.883Z,21.74
2017-07-07T00:26:04.883Z,21.54
2017-07-07T00:27:04.877Z,21.58
2017-07-07T00:28:04.552Z,21.59
2017-07-07T00:29:04.842Z,21.44
2017-07-07T00:30:04.515Z,21.43
2017-07-07T00:31:04.824Z,21.19
2017-07-07T00:32:04.804Z,21.33
2017-07-07T00:33:04.774Z,21.29
2017-07-07T00:34:04.793Z,21.17
2017-07-07T00:35:04.765Z,21.26
2017-07-07T00:36:04.775Z,21.31
2017-07-07T00:37:04.779Z,21.39
2017-07-07T00:38:04.720Z,21.4
2017-07-07T00:39:04.397Z,21.25
2017-07-07T00:40:04.694Z,21.29
2017-07-07T00:41:04.692Z,21.26
2017-07-07T00:42:04.355Z,21.36
2017-07-07T00:43:04.669Z,21.41
2017-07-07T00:44:04.321Z,21.37
2017-07-07T00:45:04.622Z,21.18
2017-07-07T00:46:04.603Z,21.02
2017-07-07T00:47:04.598Z,20.89
2017-07-07T00:48:04.268Z,20.79
2017-07-07T00:49:04.600Z,20.72
2017-07-07T00:50:04.573Z,20.72
2017-07-07T00:51:04.231Z,20.69
2017-07-07T00:52:04.222Z,20.73
2017-07-07T00:53:03.889Z,20.72
2017-07-07T00:54:04.498Z,20.63
2017-07-07T00:55:04.490Z,20.72
2017-07-07T00:56:04.562Z,20.6
2017-07-07T00:57:04.494Z,20.57
2017-07-07T00:58:04.451Z,20.73
2017-07-07T00:59:04.427Z,20.81
2017-07-07T01:00:04.417Z,20.92
2017-07-07T01:01:04.420Z,20.95
2017-07-07T01:02:03.760Z,20.84
2017-07-07T01:03:04.065Z,20.88
2017-07-07T01:04:03.744Z,20.95
2017-07-07T01:05:03.722Z,21
2017-07-07T01:06:04.021Z,20.89
2017-07-07T01:07:03.693Z,20.89
2017-07-07T01:08:04.018Z,21
2017-07-07T01:09:03.982Z,20.99
2017-07-07T01:10:03.975Z,21.09
2017-07-07T01:11:03.955Z,21.11
2017-07-07T01:12:04.352Z,20.81
2017-07-07T01:13:03.932Z,21.02
2017-07-07T01:14:04.329Z,21.1
2017-07-07T01:15:03.581Z,21.11
2017-07-07T01:16:04.202Z,21.03
2017-07-07T01:17:03.873Z,21.06
2017-07-07T01:18:03.961Z,20.94
2017-07-07T01:19:04.153Z,20.94
2017-07-07T01:20:04.213Z,20.72
2017-07-07T01:21:03.825Z,20.63
2017-07-07T01:22:04.161Z,20.72
2017-07-07T01:23:04.123Z,20.73
2017-07-07T01:24:03.825Z,20.78
2017-07-07T01:25:04.071Z,20.92
2017-07-07T01:26:03.755Z,20.88
2017-07-07T01:27:03.739Z,20.69
2017-07-07T01:28:04.039Z,20.73
2017-07-07T01:29:03.709Z,20.72
2017-07-07T01:30:04.009Z,20.78
2017-07-07T01:31:03.693Z,20.78
2017-07-07T01:32:03.681Z,20.92
2017-07-07T01:33:03.342Z,20.82
2017-07-07T01:34:03.695Z,20.92
2017-07-07T01:35:03.636Z,20.89
2017-07-07T01:36:03.942Z,20.79
2017-07-07T01:37:03.611Z,20.73
2017-07-07T01:38:03.272Z,20.76
2017-07-07T01:39:03.572Z,20.69
2017-07-07T01:40:03.857Z,20.51
2017-07-07T01:41:03.857Z,20.58
2017-07-07T01:42:03.533Z,20.69
2017-07-07T01:43:03.862Z,20.74
2017-07-07T01:44:03.192Z,20.91
2017-07-07T01:45:03.826Z,20.84
2017-07-07T01:46:03.162Z,20.87
2017-07-07T01:47:03.785Z,20.95
2017-07-07T01:48:03.764Z,20.88
2017-07-07T01:49:03.756Z,20.95
2017-07-07T01:50:03.453Z,20.97
2017-07-07T01:51:03.115Z,21.03
2017-07-07T01:52:03.716Z,21.11
2017-07-07T01:53:03.381Z,21.13
2017-07-07T01:54:03.685Z,21.11
2017-07-07T01:55:03.122Z,21.03
2017-07-07T01:56:03.351Z,20.85
2017-07-07T01:57:03.651Z,20.67
2017-07-07T01:58:03.405Z,20.72
2017-07-07T01:59:03.365Z,20.84
2017-07-07T02:00:03.611Z,20.79
2017-07-07T02:01:03.583Z,20.73
2017-07-07T02:02:03.576Z,20.69
2017-07-07T02:03:03.551Z,20.66
2017-07-07T02:04:03.555Z,20.72
2017-07-07T02:05:03.229Z,20.66
2017-07-07T02:06:03.522Z,20.67
2017-07-07T02:07:03.501Z,20.57
2017-07-07T02:08:03.178Z,20.41
2017-07-07T02:09:03.162Z,20.52
2017-07-07T02:10:03.152Z,20.52
2017-07-07T02:11:03.464Z,20.7
2017-07-07T02:12:03.441Z,20.64
2017-07-07T02:13:03.425Z,20.7
2017-07-07T02:14:03.093Z,20.72
2017-07-07T02:15:03.103Z,20.67
2017-07-07T02:16:03.384Z,20.76
2017-07-07T02:17:03.043Z,20.7
2017-07-07T02:18:03.365Z,20.63
2017-07-07T02:19:03.022Z,20.55
2017-07-07T02:20:03.333Z,20.51
2017-07-07T02:21:02.685Z,20.57
2017-07-07T02:22:02.981Z,20.69
2017-07-07T02:23:02.979Z,20.73
2017-07-07T02:24:03.285Z,20.79
2017-07-07T02:25:02.942Z,20.92
2017-07-07T02:26:03.242Z,20.97
2017-07-07T02:27:02.922Z,20.82
2017-07-07T02:28:03.226Z,20.74
2017-07-07T02:29:02.882Z,20.74
2017-07-07T02:30:03.291Z,20.82
2017-07-07T02:31:02.862Z,20.85
2017-07-07T02:32:02.853Z,20.89
2017-07-07T02:33:02.826Z,20.97
2017-07-07T02:34:03.192Z,20.89
2017-07-07T02:35:02.822Z,20.81
2017-07-07T02:36:03.112Z,20.79
2017-07-07T02:37:02.793Z,20.72
2017-07-07T02:38:03.194Z,20.64
2017-07-07T02:39:02.435Z,20.49
2017-07-07T02:40:03.044Z,20.51
2017-07-07T02:41:03.072Z,20.44
2017-07-07T02:42:02.720Z,20.52
2017-07-07T02:43:02.692Z,20.6
2017-07-07T02:44:02.374Z,20.73
2017-07-07T02:45:03.046Z,20.69
2017-07-07T02:46:02.664Z,20.67
2017-07-07T02:47:02.643Z,20.63
2017-07-07T02:48:02.943Z,20.64
2017-07-07T02:49:02.923Z,20.52
2017-07-07T02:50:02.916Z,20.41
2017-07-07T02:51:02.603Z,20.51
2017-07-07T02:52:02.894Z,20.69
2017-07-07T02:53:02.902Z,20.76
2017-07-07T02:54:02.853Z,20.76
2017-07-07T02:55:02.863Z,20.7
2017-07-07T02:56:02.525Z,20.72
2017-07-07T02:57:02.503Z,20.78
2017-07-07T02:58:02.482Z,20.81
2017-07-07T02:59:02.786Z,20.74
2017-07-07T03:00:02.788Z,20.84
2017-07-07T03:01:02.146Z,20.92
2017-07-07T03:02:02.446Z,20.89
2017-07-07T03:03:02.423Z,20.91
2017-07-07T03:04:02.714Z,20.88
2017-07-07T03:05:02.403Z,21.09
2017-07-07T03:06:02.383Z,21.06
2017-07-07T03:07:02.365Z,21.1
2017-07-07T03:08:02.672Z,21.06
2017-07-07T03:09:02.342Z,21.04
2017-07-07T03:10:02.642Z,21.09
2017-07-07T03:11:02.633Z,21.24
2017-07-07T03:12:02.294Z,21.21
2017-07-07T03:13:02.599Z,21.21
2017-07-07T03:14:02.273Z,21.21
2017-07-07T03:15:01.949Z,21.15
2017-07-07T03:16:02.563Z,21.24
2017-07-07T03:17:02.550Z,21.25
2017-07-07T03:18:02.557Z,21.17
2017-07-07T03:19:02.513Z,21.24
2017-07-07T03:20:02.503Z,21.24
2017-07-07T03:21:02.180Z,21.18
2017-07-07T03:22:02.164Z,21.11
2017-07-07T03:23:02.518Z,21.15
2017-07-07T03:24:02.134Z,21.19
2017-07-07T03:25:02.133Z,21.21
2017-07-07T03:26:02.114Z,21.25
2017-07-07T03:27:02.460Z,21.18
2017-07-07T03:28:02.390Z,21.25
2017-07-07T03:29:02.394Z,21.21
2017-07-07T03:30:02.380Z,21.18
2017-07-07T03:31:02.359Z,21.25
2017-07-07T03:32:02.030Z,21.21
2017-07-07T03:33:02.333Z,21.22
2017-07-07T03:34:02.334Z,21.15
2017-07-07T03:35:02.303Z,21.06
2017-07-07T03:36:01.980Z,20.84
2017-07-07T03:37:01.663Z,20.94
2017-07-07T03:38:01.953Z,20.91
2017-07-07T03:39:02.266Z,21
2017-07-07T03:40:01.936Z,21.07
2017-07-07T03:41:01.903Z,21
2017-07-07T03:42:02.201Z,20.99
2017-07-07T03:43:02.213Z,20.81
2017-07-07T03:44:02.304Z,20.81
2017-07-07T03:45:01.545Z,20.79
2017-07-07T03:46:01.902Z,20.57
2017-07-07T03:47:02.153Z,20.51
2017-07-07T03:48:01.821Z,20.41
2017-07-07T03:49:02.105Z,20.18
2017-07-07T03:50:01.903Z,20.03
2017-07-07T03:51:01.459Z,19.92
2017-07-07T03:52:01.582Z,19.69
2017-07-07T03:53:01.753Z,19.56
2017-07-07T03:54:02.166Z,19.44
2017-07-07T03:55:02.032Z,19.46
2017-07-07T03:56:02.111Z,19.53
2017-07-07T03:57:02.124Z,19.59
2017-07-07T03:58:01.685Z,19.83
2017-07-07T03:59:01.965Z,19.81
2017-07-07T04:00:01.652Z,19.95
2017-07-07T04:01:01.315Z,19.96
2017-07-07T04:02:01.614Z,20.1
2017-07-07T04:03:01.604Z,20.23
2017-07-07T04:04:01.690Z,20.23
2017-07-07T04:05:01.585Z,20.33
2017-07-07T04:06:01.652Z,20.33
2017-07-07T04:07:01.964Z,20.31
2017-07-07T04:08:01.882Z,20.36
2017-07-07T04:09:01.892Z,20.43
2017-07-07T04:10:01.245Z,20.48
2017-07-07T04:11:01.481Z,20.6
2017-07-07T04:12:01.482Z,20.7
2017-07-07T04:13:01.765Z,20.7
2017-07-07T04:14:01.803Z,20.63
2017-07-07T04:15:01.751Z,20.67
2017-07-07T04:16:01.422Z,20.74
2017-07-07T04:17:01.819Z,20.81
2017-07-07T04:18:01.453Z,20.74
2017-07-07T04:19:01.756Z,20.72
2017-07-07T04:20:01.353Z,20.82
2017-07-07T04:21:01.337Z,20.85
2017-07-07T04:22:01.651Z,20.82
2017-07-07T04:23:01.309Z,20.94
2017-07-07T04:24:01.302Z,20.92
2017-07-07T04:25:01.305Z,20.92
2017-07-07T04:26:01.282Z,20.95
2017-07-07T04:27:01.272Z,20.94
2017-07-07T04:28:01.261Z,21
2017-07-07T04:29:01.575Z,20.95
2017-07-07T04:30:01.223Z,20.99
2017-07-07T04:31:01.512Z,21
2017-07-07T04:32:01.202Z,20.95
2017-07-07T04:33:01.194Z,20.91
2017-07-07T04:34:01.472Z,20.94
2017-07-07T04:35:01.481Z,21
2017-07-07T04:36:01.481Z,21
2017-07-07T04:37:01.133Z,20.91
2017-07-07T04:38:01.432Z,21.04
2017-07-07T04:39:01.403Z,21.04
2017-07-07T04:40:01.080Z,21.11
2017-07-07T04:41:01.081Z,21.09
2017-07-07T04:42:01.375Z,21.1
2017-07-07T04:43:01.044Z,21.13
2017-07-07T04:44:01.363Z,21.07
2017-07-07T04:45:00.713Z,21.15
2017-07-07T04:46:01.010Z,21.15
2017-07-07T04:47:00.675Z,21.22
2017-07-07T04:48:01.293Z,21.22
2017-07-07T04:49:01.283Z,21.19
2017-07-07T04:50:01.285Z,21.21
2017-07-07T04:51:00.932Z,21.34
2017-07-07T04:52:01.254Z,21.31
2017-07-07T04:53:00.924Z,21.26
2017-07-07T04:54:01.228Z,21.26
2017-07-07T04:55:00.882Z,21.37
2017-07-07T04:56:00.941Z,21.44
2017-07-07T04:57:00.548Z,21.44
2017-07-07T04:58:01.162Z,21.39
2017-07-07T04:59:01.144Z,21.46
2017-07-07T05:00:01.141Z,21.44
2017-07-07T05:01:00.495Z,21.46
2017-07-07T05:02:00.492Z,21.46
2017-07-07T05:03:00.775Z,21.58
2017-07-07T05:04:01.072Z,21.58
2017-07-07T05:05:00.754Z,21.61
2017-07-07T05:06:00.758Z,21.65
2017-07-07T05:07:00.719Z,21.7
2017-07-07T05:08:01.031Z,21.8
2017-07-07T05:09:00.712Z,21.79
2017-07-07T05:10:01.025Z,21.81
2017-07-07T05:11:00.681Z,21.76
2017-07-07T05:12:00.976Z,21.83
2017-07-07T05:13:00.345Z,21.8
2017-07-07T05:14:00.631Z,21.84
2017-07-07T05:15:00.631Z,21.96
2017-07-07T05:16:00.622Z,21.95
2017-07-07T05:17:01.116Z,21.99
2017-07-07T05:18:00.272Z,21.96
2017-07-07T05:19:00.581Z,21.9
2017-07-07T05:20:00.881Z,22.05
2017-07-07T05:21:00.564Z,21.97
2017-07-07T05:22:00.528Z,22.02
2017-07-07T05:23:00.830Z,22.12
2017-07-07T05:24:00.813Z,22.02
2017-07-07T05:25:00.500Z,22.06
2017-07-07T05:26:00.481Z,22.06
2017-07-07T05:27:00.784Z,21.97
2017-07-07T05:28:00.474Z,21.96
2017-07-07T05:29:00.754Z,22
2017-07-07T05:30:00.441Z,21.93
2017-07-07T05:31:00.429Z,21.93
2017-07-07T05:32:00.420Z,21.96
2017-07-07T05:33:00.401Z,21.96
2017-07-07T05:34:00.378Z,22.05
2017-07-07T05:35:00.062Z,21.96
2017-07-07T05:36:00.685Z,22.06
2017-07-07T05:37:00.663Z,22.03
2017-07-07T05:38:00.331Z,22.08
2017-07-07T05:39:00.324Z,22.08
2017-07-07T05:40:00.613Z,22.08
2017-07-07T05:41:00.631Z,22.05
2017-07-07T05:42:00.284Z,22.05
2017-07-07T05:43:00.594Z,21.97
2017-07-07T05:44:00.581Z,21.9
2017-07-07T05:45:00.572Z,21.99
2017-07-07T05:46:00.242Z,21.96
2017-07-07T05:47:00.223Z,22.1
2017-07-07T05:48:00.227Z,22.06
2017-07-07T05:49:00.242Z,22
2017-07-07T05:50:00.512Z,21.97
2017-07-07T05:51:00.172Z,21.99
2017-07-07T05:52:00.477Z,21.95
2017-07-07T05:53:00.491Z,21.96
2017-07-07T05:54:00.451Z,22.11
2017-07-07T05:55:00.445Z,21.93
2017-07-07T05:56:00.113Z,21.99
2017-07-07T05:57:00.112Z,22.1
2017-07-07T05:58:00.411Z,22.12
2017-07-07T05:59:00.083Z,22.1
2017-07-07T06:00:00.410Z,22.12
2017-07-07T06:01:00.059Z,22.12
2017-07-07T06:02:00.371Z,22.03
2017-07-07T06:03:00.041Z,22.12
2017-07-07T06:04:00.041Z,22.08
2017-07-07T06:05:00.315Z,22.1
2017-07-07T06:06:00.324Z,22.21
2017-07-07T06:06:59.994Z,22.17
2017-07-07T06:08:00.302Z,22.27
2017-07-07T06:09:00.270Z,22.39
2017-07-07T06:10:00.264Z,22.29
2017-07-07T06:11:00.256Z,22.32
2017-07-07T06:12:00.226Z,22.3
2017-07-07T06:13:00.223Z,22.37
2017-07-07T06:14:00.226Z,22.39
2017-07-07T06:15:00.208Z,22.37
2017-07-07T06:16:00.195Z,22.32
2017-07-07T06:17:00.183Z,22.1
2017-07-07T06:17:59.862Z,22.17
2017-07-07T06:19:00.153Z,22.24
2017-07-07T06:20:00.236Z,22.2
2017-07-07T06:21:00.125Z,22.22
2017-07-07T06:22:00.114Z,22.21
2017-07-07T06:23:00.111Z,22.2
2017-07-07T06:24:00.104Z,22.08
2017-07-07T06:24:59.765Z,22.18
2017-07-07T06:26:00.093Z,22.1
2017-07-07T06:27:00.102Z,22.1
2017-07-07T06:28:00.134Z,22.14
2017-07-07T06:29:00.038Z,22.18
2017-07-07T06:30:00.033Z,22.29
2017-07-07T06:31:00.079Z,22.21
2017-07-07T06:31:59.996Z,22.3
2017-07-07T06:33:00.051Z,22.4
2017-07-07T06:33:59.653Z,22.21
2017-07-07T06:34:59.964Z,22.21
2017-07-07T06:35:59.732Z,22.32
2017-07-07T06:37:00.054Z,22.45
2017-07-07T06:37:59.935Z,22.45
2017-07-07T06:38:59.593Z,22.52
2017-07-07T06:39:59.594Z,22.54
2017-07-07T06:40:59.887Z,22.66
2017-07-07T06:41:59.553Z,22.59
2017-07-07T06:42:59.602Z,22.67
2017-07-07T06:43:59.532Z,22.74
2017-07-07T06:44:59.884Z,22.77
2017-07-07T06:45:59.524Z,22.87
2017-07-07T06:46:59.500Z,22.89
2017-07-07T06:47:59.565Z,22.77
2017-07-07T06:48:59.180Z,22.61
2017-07-07T06:49:59.145Z,22.54
2017-07-07T06:50:59.215Z,22.48
2017-07-07T06:51:59.442Z,22.47
2017-07-07T06:52:59.121Z,22.54
2017-07-07T06:53:59.733Z,22.55
2017-07-07T06:54:59.413Z,22.5
2017-07-07T06:55:59.705Z,22.48
2017-07-07T06:56:59.384Z,22.54
2017-07-07T06:57:59.762Z,22.61
2017-07-07T06:58:59.351Z,22.77
2017-07-07T06:59:59.657Z,22.73
2017-07-07T07:00:59.643Z,22.8
2017-07-07T07:01:59.639Z,22.95
2017-07-07T07:02:59.313Z,22.99
2017-07-07T07:03:59.611Z,22.94
2017-07-07T07:04:59.595Z,22.76
2017-07-07T07:05:59.609Z,22.79
2017-07-07T07:06:59.579Z,22.82
2017-07-07T07:07:59.591Z,22.94
2017-07-07T07:08:59.556Z,22.98
2017-07-07T07:09:59.536Z,23.14
2017-07-07T07:10:58.939Z,23.04
2017-07-07T07:11:59.502Z,23.12
2017-07-07T07:12:59.513Z,23.28
2017-07-07T07:13:59.324Z,23.21
2017-07-07T07:14:59.482Z,23.21
2017-07-07T07:15:59.470Z,23.28
2017-07-07T07:16:58.846Z,23.22
2017-07-07T07:17:59.452Z,23.38
2017-07-07T07:18:59.114Z,23.41
2017-07-07T07:19:59.103Z,23.51
2017-07-07T07:20:59.099Z,23.6
2017-07-07T07:21:59.070Z,23.8
2017-07-07T07:22:59.070Z,23.69
2017-07-07T07:23:59.111Z,23.59
2017-07-07T07:24:59.062Z,23.6
2017-07-07T07:25:59.050Z,23.62
2017-07-07T07:26:59.345Z,23.4
2017-07-07T07:27:59.127Z,23.36
2017-07-07T07:28:59.329Z,23.42
2017-07-07T07:29:59.362Z,23.51
2017-07-07T07:30:59.052Z,23.62
2017-07-07T07:31:58.979Z,23.8
2017-07-07T07:32:58.961Z,23.87
2017-07-07T07:33:58.952Z,23.84
2017-07-07T07:34:59.250Z,23.82
2017-07-07T07:35:59.244Z,23.89
2017-07-07T07:36:59.253Z,23.84
2017-07-07T07:37:58.924Z,23.82
2017-07-07T07:38:59.219Z,23.96
2017-07-07T07:39:58.882Z,23.99
2017-07-07T07:40:59.240Z,24.09
2017-07-07T07:41:58.864Z,24.22
2017-07-07T07:42:59.164Z,24.22
2017-07-07T07:43:58.526Z,24.28
2017-07-07T07:44:58.823Z,24.37
2017-07-07T07:45:59.137Z,24.42
2017-07-07T07:46:59.132Z,24.62
2017-07-07T07:47:58.817Z,24.54
2017-07-07T07:48:58.480Z,24.7
2017-07-07T07:49:58.781Z,24.84
2017-07-07T07:50:59.073Z,24.81
2017-07-07T07:51:59.083Z,24.93
2017-07-07T07:52:58.743Z,24.9
2017-07-07T07:53:59.045Z,25
2017-07-07T07:54:59.085Z,24.96
2017-07-07T07:55:58.716Z,24.97
2017-07-07T07:56:58.701Z,24.87
2017-07-07T07:57:59.004Z,25.08
2017-07-07T07:58:58.692Z,25.27
2017-07-07T07:59:59.004Z,25.26
2017-07-07T08:00:58.984Z,25.37
2017-07-07T08:01:58.974Z,25.27
2017-07-07T08:02:58.967Z,25.03
2017-07-07T08:03:58.330Z,25.02
2017-07-07T08:04:58.936Z,25.25
2017-07-07T08:05:58.620Z,25.45
2017-07-07T08:06:58.312Z,25.63
2017-07-07T08:07:58.622Z,25.7
2017-07-07T08:08:58.901Z,25.66
2017-07-07T08:09:58.923Z,25.71
2017-07-07T08:10:58.882Z,25.84
2017-07-07T08:11:58.572Z,25.88
2017-07-07T08:12:58.553Z,26.04
2017-07-07T08:13:58.551Z,25.94
2017-07-07T08:14:58.533Z,25.92
2017-07-07T08:15:58.521Z,25.92
2017-07-07T08:16:58.510Z,25.84
2017-07-07T08:17:58.822Z,25.86
2017-07-07T08:18:58.801Z,25.86
2017-07-07T08:19:58.502Z,25.81
2017-07-07T08:20:58.817Z,25.89
2017-07-07T08:21:58.801Z,25.69
2017-07-07T08:22:58.454Z,25.73
2017-07-07T08:23:58.770Z,25.81
2017-07-07T08:24:58.757Z,26.07
2017-07-07T08:25:58.430Z,25.92
2017-07-07T08:26:58.741Z,26.19
2017-07-07T08:27:58.101Z,26.39
2017-07-07T08:28:58.420Z,26.59
2017-07-07T08:29:58.092Z,26.78
2017-07-07T08:30:58.704Z,26.82
2017-07-07T08:31:58.392Z,27.04
2017-07-07T08:32:58.375Z,27.15
2017-07-07T08:33:58.778Z,27.23
2017-07-07T08:34:58.663Z,27
2017-07-07T08:35:58.670Z,27.21
2017-07-07T08:36:58.333Z,27.37
2017-07-07T08:37:58.707Z,27.44
2017-07-07T08:38:58.632Z,27.46
2017-07-07T08:39:58.620Z,27.57
2017-07-07T08:40:58.632Z,27.43
2017-07-07T08:41:58.622Z,27.5
2017-07-07T08:42:58.311Z,27.64
2017-07-07T08:43:58.284Z,27.75
2017-07-07T08:44:58.599Z,27.93
2017-07-07T08:45:58.597Z,27.94
2017-07-07T08:46:58.252Z,28.1
2017-07-07T08:47:58.571Z,28.34
2017-07-07T08:48:58.566Z,28.34
2017-07-07T08:49:58.242Z,28.31
2017-07-07T08:50:58.251Z,28.31
2017-07-07T08:51:58.222Z,28.42
2017-07-07T08:52:58.541Z,28.52
2017-07-07T08:53:58.271Z,28.43
2017-07-07T08:54:58.192Z,28.71
2017-07-07T08:55:58.511Z,28.86
2017-07-07T08:56:58.501Z,28.83
2017-07-07T08:57:58.501Z,28.8
2017-07-07T08:58:58.500Z,28.95
2017-07-07T08:59:58.484Z,29.03
2017-07-07T09:00:58.458Z,29.05
2017-07-07T09:01:57.832Z,29.2
2017-07-07T09:02:58.207Z,29.15
2017-07-07T09:03:58.140Z,29.17
2017-07-07T09:04:58.451Z,29.1
2017-07-07T09:05:58.440Z,29.02
2017-07-07T09:06:58.211Z,29.15
2017-07-07T09:07:58.431Z,29.43
2017-07-07T09:08:58.413Z,29.47
2017-07-07T09:09:58.091Z,29.65
2017-07-07T09:10:57.777Z,29.88
2017-07-07T09:11:58.082Z,29.94
2017-07-07T09:12:57.757Z,30.14
2017-07-07T09:13:58.374Z,30.03
2017-07-07T09:14:58.363Z,30.16
2017-07-07T09:15:57.747Z,30.11
2017-07-07T09:16:58.372Z,30.17
2017-07-07T09:17:58.031Z,30.17
2017-07-07T09:18:58.104Z,30.25
2017-07-07T09:19:58.113Z,30.07
2017-07-07T09:20:58.023Z,30.05
2017-07-07T09:21:58.011Z,30.21
2017-07-07T09:22:58.000Z,30.31
2017-07-07T09:23:57.702Z,30.63
2017-07-07T09:24:58.330Z,30.32
2017-07-07T09:25:57.763Z,30.4
2017-07-07T09:26:57.986Z,30.4
2017-07-07T09:27:58.307Z,30.39
2017-07-07T09:28:58.300Z,30.49
2017-07-07T09:29:57.973Z,30.51
2017-07-07T09:30:57.971Z,30.26
2017-07-07T09:31:58.020Z,30.05
2017-07-07T09:32:58.291Z,29.99
2017-07-07T09:33:58.268Z,29.73
2017-07-07T09:34:58.292Z,29.72
2017-07-07T09:35:57.961Z,29.59
2017-07-07T09:36:58.253Z,29.73
2017-07-07T09:37:58.269Z,29.89
2017-07-07T09:38:58.332Z,29.86
2017-07-07T09:39:57.622Z,30.08
2017-07-07T09:40:57.613Z,30.11
2017-07-07T09:41:57.932Z,30.01
2017-07-07T09:42:58.220Z,29.14
2017-07-07T09:43:57.651Z,28.98
2017-07-07T09:44:58.276Z,28.97
2017-07-07T09:45:58.271Z,29.22
2017-07-07T09:46:58.218Z,29.74
2017-07-07T09:47:58.239Z,30.01
2017-07-07T09:48:58.189Z,30.17
2017-07-07T09:49:57.894Z,30.4
2017-07-07T09:50:57.895Z,30.56
2017-07-07T09:51:57.873Z,30.64
2017-07-07T09:52:57.874Z,30.64
2017-07-07T09:53:57.879Z,30.29
2017-07-07T09:54:58.165Z,30.25
2017-07-07T09:55:58.170Z,30.32
2017-07-07T09:56:57.852Z,30.33
2017-07-07T09:57:57.854Z,30.43
2017-07-07T09:58:58.157Z,30.39
2017-07-07T09:59:57.851Z,30.39
2017-07-07T10:00:57.850Z,30.55
2017-07-07T10:01:57.832Z,30.85
2017-07-07T10:02:57.831Z,31
2017-07-07T10:03:57.912Z,31.03
2017-07-07T10:04:57.820Z,31.04
2017-07-07T10:05:57.827Z,30.81
2017-07-07T10:06:58.132Z,30.54
2017-07-07T10:07:57.815Z,30.49
2017-07-07T10:08:57.812Z,30.25
2017-07-07T10:09:57.862Z,30.11
2017-07-07T10:10:57.801Z,30.1
2017-07-07T10:11:58.122Z,29.88
2017-07-07T10:12:58.211Z,29.58
2017-07-07T10:13:58.110Z,29.7
2017-07-07T10:14:57.899Z,29.61
2017-07-07T10:15:58.081Z,29.77
2017-07-07T10:16:57.805Z,29.88
2017-07-07T10:17:58.083Z,29.47
2017-07-07T10:18:57.912Z,29.52
2017-07-07T10:19:58.103Z,29.35
2017-07-07T10:20:57.788Z,29.47
2017-07-07T10:21:57.743Z,29.47
2017-07-07T10:22:58.046Z,29.44
2017-07-07T10:23:58.042Z,29.43
2017-07-07T10:24:58.041Z,29.35
2017-07-07T10:25:58.053Z,29.61
2017-07-07T10:26:58.013Z,29.21
2017-07-07T10:27:58.078Z,29.37
2017-07-07T10:28:58.038Z,29.7
2017-07-07T10:29:58.019Z,29.21
2017-07-07T10:30:57.691Z,28.87
2017-07-07T10:31:57.691Z,29.05
2017-07-07T10:32:57.682Z,29.25
2017-07-07T10:33:57.673Z,29.25
2017-07-07T10:34:58.000Z,29.46
2017-07-07T10:35:57.969Z,29.49
2017-07-07T10:36:57.329Z,29.46
2017-07-07T10:37:57.642Z,29.47
2017-07-07T10:38:57.655Z,29.49
2017-07-07T10:39:57.622Z,29.35
2017-07-07T10:40:57.930Z,29.2
2017-07-07T10:41:57.652Z,29.14
2017-07-07T10:42:57.920Z,29.21
2017-07-07T10:43:57.633Z,29.14
2017-07-07T10:44:57.920Z,29.15
2017-07-07T10:45:57.615Z,29.18
2017-07-07T10:46:57.604Z,29.17
2017-07-07T10:47:57.895Z,29.2
2017-07-07T10:48:57.904Z,29.24
2017-07-07T10:49:57.909Z,29.25
2017-07-07T10:50:57.863Z,29.21
2017-07-07T10:51:57.870Z,29.31
2017-07-07T10:52:57.931Z,29.47
2017-07-07T10:53:57.871Z,29.46
2017-07-07T10:54:57.861Z,29.49
2017-07-07T10:55:57.863Z,29.59
2017-07-07T10:56:57.861Z,29.73
2017-07-07T10:57:57.511Z,29.96
2017-07-07T10:58:57.510Z,30.11
2017-07-07T10:59:57.849Z,30.18
2017-07-07T11:00:57.801Z,29.92
2017-07-07T11:01:57.802Z,30.1
2017-07-07T11:02:57.795Z,30.35
2017-07-07T11:03:57.481Z,30.81
2017-07-07T11:04:57.802Z,31.04
2017-07-07T11:05:57.763Z,31.08
2017-07-07T11:06:57.764Z,31.03
2017-07-07T11:07:57.764Z,31.11
2017-07-07T11:08:57.764Z,31.04
2017-07-07T11:09:57.788Z,31.2
2017-07-07T11:10:57.433Z,31.37
2017-07-07T11:11:57.772Z,31.25
2017-07-07T11:12:57.740Z,30.78
2017-07-07T11:13:57.433Z,30.85
2017-07-07T11:14:57.738Z,30.81
2017-07-07T11:15:57.709Z,30.85
2017-07-07T11:16:57.711Z,30.98
2017-07-07T11:17:57.713Z,31.18
2017-07-07T11:18:57.714Z,31.3
2017-07-07T11:19:57.692Z,31.48
2017-07-07T11:20:57.372Z,31.48
2017-07-07T11:21:57.373Z,31.32
2017-07-07T11:22:57.039Z,31.25
2017-07-07T11:23:57.351Z,31.23
2017-07-07T11:24:57.667Z,31.2
2017-07-07T11:25:57.671Z,31.12
2017-07-07T11:26:57.671Z,31.15
2017-07-07T11:27:57.352Z,31.23
2017-07-07T11:28:57.656Z,31.3
2017-07-07T11:29:57.666Z,31.29
2017-07-07T11:30:57.699Z,31.37
2017-07-07T11:31:57.731Z,31.51
2017-07-07T11:32:57.622Z,31.49
2017-07-07T11:33:57.611Z,31.62
2017-07-07T11:34:57.627Z,31.66
2017-07-07T11:35:57.606Z,31.62
2017-07-07T11:36:57.603Z,31.66
2017-07-07T11:37:57.292Z,31.7
2017-07-07T11:38:57.619Z,31.86
2017-07-07T11:39:57.593Z,32.02
2017-07-07T11:40:57.633Z,32.29
2017-07-07T11:41:57.579Z,32.09
2017-07-07T11:42:57.603Z,32.21
2017-07-07T11:43:57.577Z,32.08
2017-07-07T11:44:57.258Z,32.27
2017-07-07T11:45:57.574Z,32.26
2017-07-07T11:46:57.536Z,32.41
2017-07-07T11:47:57.573Z,32.57
2017-07-07T11:48:57.541Z,32.57
2017-07-07T11:49:57.529Z,32.41
2017-07-07T11:50:57.566Z,32.45
2017-07-07T11:51:57.206Z,32.19
2017-07-07T11:52:57.206Z,31.9
2017-07-07T11:53:57.523Z,31.82
2017-07-07T11:54:57.500Z,31.82
2017-07-07T11:55:57.513Z,31.7
2017-07-07T11:56:57.489Z,31.66
2017-07-07T11:57:56.872Z,31.27
2017-07-07T11:58:57.595Z,30.46
2017-07-07T11:59:57.495Z,30.26
2017-07-07T12:00:57.534Z,30.31
2017-07-07T12:01:57.487Z,30.14
2017-07-07T12:02:57.472Z,30.18
2017-07-07T12:03:57.501Z,30.23
2017-07-07T12:04:57.151Z,30.16
2017-07-07T12:05:57.553Z,30.55
2017-07-07T12:06:57.144Z,30.74
2017-07-07T12:07:57.136Z,30.95
2017-07-07T12:08:57.113Z,31.26
2017-07-07T12:09:57.114Z,31.32
2017-07-07T12:10:57.445Z,31.48
2017-07-07T12:11:57.453Z,31.48
2017-07-07T12:12:57.414Z,31.56
2017-07-07T12:13:57.404Z,31.64
2017-07-07T12:14:57.394Z,31.52
2017-07-07T12:15:57.083Z,31.64
2017-07-07T12:16:56.764Z,31.89
2017-07-07T12:17:57.393Z,31.94
2017-07-07T12:18:57.073Z,31.89
2017-07-07T12:19:57.382Z,31.7
2017-07-07T12:20:57.378Z,31.57
2017-07-07T12:21:57.383Z,31.67
2017-07-07T12:22:57.046Z,31.56
2017-07-07T12:23:57.365Z,31.51
2017-07-07T12:24:57.352Z,31.52
2017-07-07T12:25:57.362Z,31.54
2017-07-07T12:26:57.347Z,31.57
2017-07-07T12:27:57.335Z,31.62
2017-07-07T12:28:57.013Z,31.52
2017-07-07T12:29:57.333Z,31.74
2017-07-07T12:30:57.303Z,31.67
2017-07-07T12:31:57.323Z,31.76
2017-07-07T12:32:56.993Z,31.66
2017-07-07T12:33:57.302Z,31.56
2017-07-07T12:34:57.314Z,31.15
2017-07-07T12:35:57.293Z,30.93
2017-07-07T12:36:57.394Z,31.12
2017-07-07T12:37:57.273Z,31.37
2017-07-07T12:38:57.274Z,31.56
2017-07-07T12:39:56.953Z,31.63
2017-07-07T12:40:56.953Z,31.52
2017-07-07T12:41:56.933Z,31.38
2017-07-07T12:42:57.280Z,31.34
2017-07-07T12:43:56.933Z,31.56
2017-07-07T12:44:56.913Z,31.54
2017-07-07T12:45:57.230Z,31.64
2017-07-07T12:46:57.260Z,31.51
2017-07-07T12:47:57.231Z,31.51
2017-07-07T12:48:57.277Z,31.49
2017-07-07T12:49:57.245Z,31.38
2017-07-07T12:50:57.203Z,31.27
2017-07-07T12:51:57.224Z,31.23
2017-07-07T12:52:57.195Z,31.32
2017-07-07T12:53:57.193Z,31.51
2017-07-07T12:54:56.872Z,31.63
2017-07-07T12:55:57.174Z,31.6